Time;durP1;ratioP1;P1;durP2;ratioP2;P2;SDS_P1;SDS_P2;PMS_P1;PMS_P2;Temp;Humidity;BMP_temperature;BMP_pressure;BME280_temperature;BME280_humidity;BME280_pressure;Samples;Min_cycle;Max_cycle;Signal;HPM_P1;HPM_P2
2023/07/16 00:00:50;;;;;;;0.00;0.00;;;;;;;;;;1748719;28;20507;-76
2023/07/16 00:01:41;;;;;;;0.00;0.00;;;;;;;;;;1752211;28;20467;-76
2023/07/16 00:02:33;;;;;;;0.00;0.00;;;;;;;;;;1752068;28;20564;-76
2023/07/16 00:03:24;;;;;;;0.00;0.00;;;;;;;;;;1753174;28;20547;-76
2023/07/16 00:04:15;;;;;;;0.00;0.00;;;;;;;;;;1751580;28;20193;-76
2023/07/16 00:05:08;;;;;;;0.00;0.00;;;;;;;;;;1753843;28;20909;-77
2023/07/16 00:05:59;;;;;;;0.00;0.00;;;;;;;;;;1748190;28;20568;-76
2023/07/16 00:06:50;;;;;;;0.00;0.00;;;;;;;;;;1753575;28;20212;-76
2023/07/16 00:07:42;;;;;;;0.00;0.00;;;;;;;;;;1752038;28;20198;-76
2023/07/16 00:08:34;;;;;;;0.00;0.00;;;;;;;;;;1753421;28;20615;-77
2023/07/16 00:09:26;;;;;;;0.00;0.00;;;;;;;;;;1751022;28;20610;-76
2023/07/16 00:10:17;;;;;;;0.00;0.00;;;;;;;;;;1751581;28;20546;-76
2023/07/16 00:11:08;;;;;;;0.00;0.00;;;;;;;;;;1750131;28;20498;-76
2023/07/16 00:12:00;;;;;;;0.00;0.00;;;;;;;;;;1753298;28;20495;-76
2023/07/16 00:12:51;;;;;;;0.00;0.00;;;;;;;;;;1749613;28;20460;-76
2023/07/16 00:13:46;;;;;;;0.00;0.00;;;;;;;;;;1753557;28;20607;-76
2023/07/16 00:14:37;;;;;;;0.00;0.00;;;;;;;;;;1751814;28;20464;-76
2023/07/16 00:15:29;;;;;;;0.00;0.00;;;;;;;;;;1750402;28;20208;-76
2023/07/16 00:16:21;;;;;;;0.00;0.00;;;;;;;;;;1751030;28;20735;-76
2023/07/16 00:17:12;;;;;;;0.00;0.00;;;;;;;;;;1753374;28;20471;-76
2023/07/16 00:18:05;;;;;;;0.00;0.00;;;;;;;;;;1751322;28;20468;-76
2023/07/16 00:18:56;;;;;;;0.00;0.00;;;;;;;;;;1753257;28;20452;-76
2023/07/16 00:19:47;;;;;;;0.00;0.00;;;;;;;;;;1752453;28;20524;-76
2023/07/16 00:20:39;;;;;;;0.00;0.00;;;;;;;;;;1749864;28;20758;-77
2023/07/16 00:21:30;;;;;;;0.00;0.00;;;;;;;;;;1752770;28;20244;-76
2023/07/16 00:22:22;;;;;;;0.00;0.00;;;;;;;;;;1752175;28;20521;-77
2023/07/16 00:23:13;;;;;;;0.00;0.00;;;;;;;;;;1752735;28;20252;-77
2023/07/16 00:24:07;;;;;;;0.00;0.00;;;;;;;;;;1752937;28;20531;-76
2023/07/16 00:24:58;;;;;;;0.00;0.00;;;;;;;;;;1752164;28;20495;-77
2023/07/16 00:25:50;;;;;;;0.00;0.00;;;;;;;;;;1748848;28;20903;-77
2023/07/16 00:26:41;;;;;;;0.00;0.00;;;;;;;;;;1752747;28;20550;-76
2023/07/16 00:27:32;;;;;;;0.00;0.00;;;;;;;;;;1751766;28;20208;-76
2023/07/16 00:28:24;;;;;;;0.00;0.00;;;;;;;;;;1752647;28;20550;-76
2023/07/16 00:29:15;;;;;;;0.00;0.00;;;;;;;;;;1750458;28;20288;-76
2023/07/16 00:30:07;;;;;;;0.00;0.00;;;;;;;;;;1753469;28;20458;-76
2023/07/16 00:30:59;;;;;;;0.00;0.00;;;;;;;;;;1747979;28;20596;-76
2023/07/16 00:31:50;;;;;;;0.00;0.00;;;;;;;;;;1753389;28;20547;-76
2023/07/16 00:32:41;;;;;;;0.00;0.00;;;;;;;;;;1751921;28;20202;-76
2023/07/16 00:33:33;;;;;;;0.00;0.00;;;;;;;;;;1753330;28;20459;-76
2023/07/16 00:34:24;;;;;;;0.00;0.00;;;;;;;;;;1751744;28;20297;-76
2023/07/16 00:35:16;;;;;;;0.00;0.00;;;;;;;;;;1749904;28;20625;-76
2023/07/16 00:36:07;;;;;;;0.00;0.00;;;;;;;;;;1751564;28;20658;-76
2023/07/16 00:37:01;;;;;;;0.00;0.00;;;;;;;;;;1752975;28;20216;-76
2023/07/16 00:37:53;;;;;;;0.00;0.00;;;;;;;;;;1750998;28;20191;-76
2023/07/16 00:38:45;;;;;;;0.00;0.00;;;;;;;;;;1753366;28;20288;-76
2023/07/16 00:39:38;;;;;;;0.00;0.00;;;;;;;;;;1751766;28;20202;-76
2023/07/16 00:40:30;;;;;;;0.00;0.00;;;;;;;;;;1749425;28;20240;-76
2023/07/16 00:41:21;;;;;;;0.00;0.00;;;;;;;;;;1751733;28;20247;-76
2023/07/16 00:42:12;;;;;;;0.00;0.00;;;;;;;;;;1753430;28;20258;-76
2023/07/16 00:43:04;;;;;;;0.00;0.00;;;;;;;;;;1750966;28;20255;-76
2023/07/16 00:43:55;;;;;;;0.00;0.00;;;;;;;;;;1747917;28;20301;-76
2023/07/16 00:44:46;;;;;;;0.00;0.00;;;;;;;;;;1751433;28;20608;-76
2023/07/16 00:45:39;;;;;;;0.00;0.00;;;;;;;;;;1749187;28;20286;-76
2023/07/16 00:46:30;;;;;;;0.00;0.00;;;;;;;;;;1751831;28;20233;-76
2023/07/16 00:47:22;;;;;;;0.00;0.00;;;;;;;;;;1752834;28;20286;-76
2023/07/16 00:48:14;;;;;;;0.00;0.00;;;;;;;;;;1751211;28;20218;-76
2023/07/16 00:49:05;;;;;;;0.00;0.00;;;;;;;;;;1747158;28;20310;-76
2023/07/16 00:49:56;;;;;;;0.00;0.00;;;;;;;;;;1749295;28;20202;-76
2023/07/16 00:50:48;;;;;;;0.00;0.00;;;;;;;;;;1748772;28;20221;-77
2023/07/16 00:51:39;;;;;;;0.00;0.00;;;;;;;;;;1750031;28;20772;-77
2023/07/16 00:52:32;;;;;;;0.00;0.00;;;;;;;;;;1751951;28;20225;-76
2023/07/16 00:53:24;;;;;;;0.00;0.00;;;;;;;;;;1752541;28;20682;-75
2023/07/16 00:54:15;;;;;;;0.00;0.00;;;;;;;;;;1751145;28;20690;-76
2023/07/16 00:55:08;;;;;;;0.00;0.00;;;;;;;;;;1753283;28;20362;-77
2023/07/16 00:56:01;;;;;;;0.00;0.00;;;;;;;;;;1746844;28;20237;-76
2023/07/16 00:56:52;;;;;;;0.00;0.00;;;;;;;;;;1751238;28;20244;-76
2023/07/16 00:57:43;;;;;;;0.00;0.00;;;;;;;;;;1751292;28;20209;-76
2023/07/16 00:58:35;;;;;;;0.00;0.00;;;;;;;;;;1753304;28;20242;-76
2023/07/16 00:59:26;;;;;;;0.00;0.00;;;;;;;;;;1751778;28;20524;-76
2023/07/16 01:00:18;;;;;;;0.00;0.00;;;;;;;;;;1749379;28;20216;-76
2023/07/16 01:01:10;;;;;;;0.00;0.00;;;;;;;;;;1751470;28;20267;-76
2023/07/16 01:02:01;;;;;;;0.00;0.00;;;;;;;;;;1752510;28;20201;-76
2023/07/16 01:02:53;;;;;;;0.00;0.00;;;;;;;;;;1752397;28;20273;-76
2023/07/16 01:03:44;;;;;;;0.00;0.00;;;;;;;;;;1753052;28;20604;-76
2023/07/16 01:04:35;;;;;;;0.00;0.00;;;;;;;;;;1751129;28;20260;-76
2023/07/16 01:05:33;;;;;;;0.00;0.00;;;;;;;;;;1749779;28;20202;-76
2023/07/16 01:06:29;;;;;;;0.00;0.00;;;;;;;;;;1747733;28;20202;-76
2023/07/16 01:07:25;;;;;;;0.00;0.00;;;;;;;;;;1753158;28;20275;-76
2023/07/16 01:08:21;;;;;;;0.00;0.00;;;;;;;;;;1751700;28;20697;-75
2023/07/16 01:09:16;;;;;;;0.00;0.00;;;;;;;;;;1751836;28;20251;-76
2023/07/16 01:10:10;;;;;;;0.00;0.00;;;;;;;;;;1753573;28;20518;-76
2023/07/16 01:11:02;;;;;;;0.00;0.00;;;;;;;;;;1747664;28;20272;-76
2023/07/16 01:11:53;;;;;;;0.00;0.00;;;;;;;;;;1753339;28;20403;-76
2023/07/16 01:12:46;;;;;;;0.00;0.00;;;;;;;;;;1751508;28;20267;-76
2023/07/16 01:13:37;;;;;;;0.00;0.00;;;;;;;;;;1753468;28;20296;-76
2023/07/16 01:14:29;;;;;;;0.00;0.00;;;;;;;;;;1751061;28;20624;-76
2023/07/16 01:15:21;;;;;;;0.00;0.00;;;;;;;;;;1750326;28;20773;-77
2023/07/16 01:16:19;;;;;;;0.00;0.00;;;;;;;;;;1748994;28;20976;-76
2023/07/16 01:17:11;;;;;;;0.00;0.00;;;;;;;;;;1748604;28;20210;-76
2023/07/16 01:18:04;;;;;;;0.00;0.00;;;;;;;;;;1750557;28;20249;-77
2023/07/16 01:18:56;;;;;;;0.00;0.00;;;;;;;;;;1752691;28;20559;-77
2023/07/16 01:19:47;;;;;;;0.00;0.00;;;;;;;;;;1751236;28;20301;-76
2023/07/16 01:20:39;;;;;;;0.00;0.00;;;;;;;;;;1748657;28;20229;-76
2023/07/16 01:21:35;;;;;;;0.00;0.00;;;;;;;;;;1748588;28;20301;-76
2023/07/16 01:22:36;;;;;;;0.00;0.00;;;;;;;;;;1752466;28;20197;-76
2023/07/16 01:23:34;;;;;;;0.00;0.00;;;;;;;;;;1752909;28;20198;-77
2023/07/16 01:24:38;;;;;;;0.00;0.00;;;;;;;;;;1751214;28;20289;-76
2023/07/16 01:25:46;;;;;;;0.00;0.00;;;;;;;;;;1747228;28;22957;-76
2023/07/16 01:26:46;;;;;;;0.00;0.00;;;;;;;;;;1752597;28;20324;-76
2023/07/16 01:27:52;;;;;;;0.00;0.00;;;;;;;;;;1751735;28;20202;-75
2023/07/16 01:29:05;;;;;;;0.00;0.00;;;;;;;;;;1735321;28;20226;-76
2023/07/16 01:29:58;;;;;;;0.00;0.00;;;;;;;;;;1745937;28;20296;-76
2023/07/16 01:30:52;;;;;;;0.00;0.00;;;;;;;;;;1747429;28;20556;-76
2023/07/16 01:31:43;;;;;;;0.00;0.00;;;;;;;;;;1752879;28;20600;-76
2023/07/16 01:32:36;;;;;;;0.00;0.00;;;;;;;;;;1751770;28;20208;-76
2023/07/16 01:33:27;;;;;;;0.00;0.00;;;;;;;;;;1752679;28;20212;-76
2023/07/16 01:34:19;;;;;;;0.00;0.00;;;;;;;;;;1751686;28;20833;-76
2023/07/16 01:35:11;;;;;;;0.00;0.00;;;;;;;;;;1753121;28;20247;-76
2023/07/16 01:36:03;;;;;;;0.00;0.00;;;;;;;;;;1744602;28;20700;-76
2023/07/16 01:36:54;;;;;;;0.00;0.00;;;;;;;;;;1751206;28;20206;-77
2023/07/16 01:37:46;;;;;;;0.00;0.00;;;;;;;;;;1748929;28;20205;-76
2023/07/16 01:38:37;;;;;;;0.00;0.00;;;;;;;;;;1753029;28;20293;-77
2023/07/16 01:39:29;;;;;;;0.00;0.00;;;;;;;;;;1750200;28;20501;-76
2023/07/16 01:40:20;;;;;;;0.00;0.00;;;;;;;;;;1748561;28;20197;-75
2023/07/16 01:41:11;;;;;;;0.00;0.00;;;;;;;;;;1750823;28;20316;-75
2023/07/16 01:42:03;;;;;;;0.00;0.00;;;;;;;;;;1753026;28;20205;-75
2023/07/16 01:42:54;;;;;;;0.00;0.00;;;;;;;;;;1750947;28;20384;-75
2023/07/16 01:43:45;;;;;;;0.00;0.00;;;;;;;;;;1752726;28;20232;-75
2023/07/16 01:44:37;;;;;;;0.00;0.00;;;;;;;;;;1751494;28;20689;-75
2023/07/16 01:45:30;;;;;;;0.00;0.00;;;;;;;;;;1749262;28;20245;-75
2023/07/16 01:46:21;;;;;;;0.00;0.00;;;;;;;;;;1741314;28;20222;-76
2023/07/16 01:47:13;;;;;;;0.00;0.00;;;;;;;;;;1745811;28;20486;-76
2023/07/16 01:48:11;;;;;;;0.00;0.00;;;;;;;;;;1743337;28;20330;-76
2023/07/16 01:49:03;;;;;;;0.00;0.00;;;;;;;;;;1744784;28;20268;-76
2023/07/16 01:49:54;;;;;;;0.00;0.00;;;;;;;;;;1745437;28;20213;-76
2023/07/16 01:50:46;;;;;;;0.00;0.00;;;;;;;;;;1741830;28;20222;-76
2023/07/16 01:51:38;;;;;;;0.00;0.00;;;;;;;;;;1745347;28;20301;-76
2023/07/16 01:52:29;;;;;;;0.00;0.00;;;;;;;;;;1745537;28;20306;-76
2023/07/16 01:53:20;;;;;;;0.00;0.00;;;;;;;;;;1745733;28;20194;-75
2023/07/16 01:54:12;;;;;;;0.00;0.00;;;;;;;;;;1745132;28;20658;-76
2023/07/16 01:55:03;;;;;;;0.00;0.00;;;;;;;;;;1745933;28;20230;-76
2023/07/16 01:55:54;;;;;;;0.00;0.00;;;;;;;;;;1741464;28;20291;-76
2023/07/16 01:56:46;;;;;;;0.00;0.00;;;;;;;;;;1745848;28;20251;-76
2023/07/16 01:57:37;;;;;;;0.00;0.00;;;;;;;;;;1745403;28;20359;-76
2023/07/16 01:58:29;;;;;;;0.00;0.00;;;;;;;;;;1745685;28;20578;-76
2023/07/16 01:59:20;;;;;;;0.00;0.00;;;;;;;;;;1745045;28;20572;-76
2023/07/16 02:00:12;;;;;;;0.00;0.00;;;;;;;;;;1745699;28;20202;-76
2023/07/16 02:01:06;;;;;;;0.00;0.00;;;;;;;;;;1740704;28;20613;-76
2023/07/16 02:01:57;;;;;;;0.00;0.00;;;;;;;;;;1745503;28;20301;-75
2023/07/16 02:02:48;;;;;;;0.00;0.00;;;;;;;;;;1745520;28;20198;-76
2023/07/16 02:03:40;;;;;;;0.00;0.00;;;;;;;;;;1745674;28;20202;-76
2023/07/16 02:04:31;;;;;;;0.00;0.00;;;;;;;;;;1745039;28;20226;-76
2023/07/16 02:05:22;;;;;;;0.00;0.00;;;;;;;;;;1743738;28;20198;-75
2023/07/16 02:06:14;;;;;;;0.00;0.00;;;;;;;;;;1747116;28;20580;-75
2023/07/16 02:07:05;;;;;;;0.00;0.00;;;;;;;;;;1746986;28;20202;-75
2023/07/16 02:07:56;;;;;;;0.00;0.00;;;;;;;;;;1747328;28;20202;-76
2023/07/16 02:08:48;;;;;;;0.00;0.00;;;;;;;;;;1745847;28;20225;-75
2023/07/16 02:09:40;;;;;;;0.00;0.00;;;;;;;;;;1745387;28;20293;-75
2023/07/16 02:10:31;;;;;;;0.00;0.00;;;;;;;;;;1747456;28;20248;-76
2023/07/16 02:11:23;;;;;;;0.00;0.00;;;;;;;;;;1746061;28;20190;-76
2023/07/16 02:12:14;;;;;;;0.00;0.00;;;;;;;;;;1748160;28;20720;-77
2023/07/16 02:13:05;;;;;;;0.00;0.00;;;;;;;;;;1745193;28;20206;-76
2023/07/16 02:13:57;;;;;;;0.00;0.00;;;;;;;;;;1746123;28;20952;-77
2023/07/16 02:14:48;;;;;;;0.00;0.00;;;;;;;;;;1745207;28;20235;-76
2023/07/16 02:15:40;;;;;;;0.00;0.00;;;;;;;;;;1749733;28;20705;-77
2023/07/16 02:16:32;;;;;;;0.00;0.00;;;;;;;;;;1745207;28;20699;-76
2023/07/16 02:17:25;;;;;;;0.00;0.00;;;;;;;;;;1748261;28;20370;-76
2023/07/16 02:18:16;;;;;;;0.00;0.00;;;;;;;;;;1744998;28;20738;-76
2023/07/16 02:19:08;;;;;;;0.00;0.00;;;;;;;;;;1744844;28;20206;-76
2023/07/16 02:19:59;;;;;;;0.00;0.00;;;;;;;;;;1745656;28;20771;-75
2023/07/16 02:20:50;;;;;;;0.00;0.00;;;;;;;;;;1749234;28;20222;-76
2023/07/16 02:21:42;;;;;;;0.00;0.00;;;;;;;;;;1745658;28;20199;-76
2023/07/16 02:22:34;;;;;;;0.00;0.00;;;;;;;;;;1748242;28;20296;-76
2023/07/16 02:23:25;;;;;;;0.00;0.00;;;;;;;;;;1745543;28;20198;-75
2023/07/16 02:24:17;;;;;;;0.00;0.00;;;;;;;;;;1745183;28;20615;-75
2023/07/16 02:25:08;;;;;;;0.00;0.00;;;;;;;;;;1747095;28;20296;-75
2023/07/16 02:26:00;;;;;;;0.00;0.00;;;;;;;;;;1747486;28;20234;-76
2023/07/16 02:26:51;;;;;;;0.00;0.00;;;;;;;;;;1748004;28;20253;-77
2023/07/16 02:27:42;;;;;;;0.00;0.00;;;;;;;;;;1747833;28;20317;-76
2023/07/16 02:28:34;;;;;;;0.00;0.00;;;;;;;;;;1750466;28;20781;-76
2023/07/16 02:29:25;;;;;;;0.00;0.00;;;;;;;;;;1747814;28;20321;-76
2023/07/16 02:30:17;;;;;;;0.00;0.00;;;;;;;;;;1746234;28;20315;-77
2023/07/16 02:31:08;;;;;;;0.00;0.00;;;;;;;;;;1750767;28;20292;-76
2023/07/16 02:32:01;;;;;;;0.00;0.00;;;;;;;;;;1752667;28;20551;-76
2023/07/16 02:32:53;;;;;;;0.00;0.00;;;;;;;;;;1751438;28;20657;-76
2023/07/16 02:33:44;;;;;;;0.00;0.00;;;;;;;;;;1752236;28;20255;-76
2023/07/16 02:34:35;;;;;;;0.00;0.00;;;;;;;;;;1750314;28;20320;-76
2023/07/16 02:35:27;;;;;;;0.00;0.00;;;;;;;;;;1751020;28;20201;-75
2023/07/16 02:36:18;;;;;;;0.00;0.00;;;;;;;;;;1751201;28;20189;-76
2023/07/16 02:37:09;;;;;;;0.00;0.00;;;;;;;;;;1752738;28;20620;-75
2023/07/16 02:38:01;;;;;;;0.00;0.00;;;;;;;;;;1750775;28;20201;-76
2023/07/16 02:38:52;;;;;;;0.00;0.00;;;;;;;;;;1752659;28;20232;-76
2023/07/16 02:39:44;;;;;;;0.00;0.00;;;;;;;;;;1751366;28;20731;-75
2023/07/16 02:40:36;;;;;;;0.00;0.00;;;;;;;;;;1747871;28;20249;-75
2023/07/16 02:41:27;;;;;;;0.00;0.00;;;;;;;;;;1745065;28;20266;-76
2023/07/16 02:42:20;;;;;;;0.00;0.00;;;;;;;;;;1745530;28;20818;-76
2023/07/16 02:43:11;;;;;;;0.00;0.00;;;;;;;;;;1745155;28;20724;-76
2023/07/16 02:44:06;;;;;;;0.00;0.00;;;;;;;;;;1745298;28;20275;-76
2023/07/16 02:44:57;;;;;;;0.00;0.00;;;;;;;;;;1745622;28;20230;-76
2023/07/16 02:45:48;;;;;;;0.00;0.00;;;;;;;;;;1739704;28;20313;-75
2023/07/16 02:46:41;;;;;;;0.00;0.00;;;;;;;;;;1745455;28;20209;-76
2023/07/16 02:47:33;;;;;;;0.00;0.00;;;;;;;;;;1744917;28;20213;-75
2023/07/16 02:48:25;;;;;;;0.00;0.00;;;;;;;;;;1745128;28;20240;-75
2023/07/16 02:49:17;;;;;;;0.00;0.00;;;;;;;;;;1744978;28;20240;-76
2023/07/16 02:50:08;;;;;;;0.00;0.00;;;;;;;;;;1745916;28;20212;-76
2023/07/16 02:51:00;;;;;;;0.00;0.00;;;;;;;;;;1743571;28;20265;-76
2023/07/16 02:51:51;;;;;;;0.00;0.00;;;;;;;;;;1743463;28;20355;-76
2023/07/16 02:52:42;;;;;;;0.00;0.00;;;;;;;;;;1744313;28;20198;-76
2023/07/16 02:53:34;;;;;;;0.00;0.00;;;;;;;;;;1745635;28;20641;-76
2023/07/16 02:54:25;;;;;;;0.00;0.00;;;;;;;;;;1744939;28;20202;-76
2023/07/16 02:55:16;;;;;;;0.00;0.00;;;;;;;;;;1743954;28;20205;-75
2023/07/16 02:56:08;;;;;;;0.00;0.00;;;;;;;;;;1751119;28;20657;-75
2023/07/16 02:56:59;;;;;;;0.00;0.00;;;;;;;;;;1752887;28;20304;-77
2023/07/16 02:57:51;;;;;;;0.00;0.00;;;;;;;;;;1749364;28;20541;-76
2023/07/16 02:58:42;;;;;;;0.00;0.00;;;;;;;;;;1751646;28;20327;-76
2023/07/16 02:59:33;;;;;;;0.00;0.00;;;;;;;;;;1751001;28;20197;-76
2023/07/16 03:00:25;;;;;;;0.00;0.00;;;;;;;;;;1750314;28;20666;-77
2023/07/16 03:01:16;;;;;;;0.00;0.00;;;;;;;;;;1750408;28;20706;-76
2023/07/16 03:02:08;;;;;;;0.00;0.00;;;;;;;;;;1752610;28;20300;-76
2023/07/16 03:03:01;;;;;;;0.00;0.00;;;;;;;;;;1751174;28;20245;-76
2023/07/16 03:03:53;;;;;;;0.00;0.00;;;;;;;;;;1745875;28;20679;-76
2023/07/16 03:04:44;;;;;;;0.00;0.00;;;;;;;;;;1750688;28;20292;-76
2023/07/16 03:05:36;;;;;;;0.00;0.00;;;;;;;;;;1751167;28;20230;-77
2023/07/16 03:06:27;;;;;;;0.00;0.00;;;;;;;;;;1750180;28;20296;-75
2023/07/16 03:07:18;;;;;;;0.00;0.00;;;;;;;;;;1752364;28;20197;-75
2023/07/16 03:08:10;;;;;;;0.00;0.00;;;;;;;;;;1750439;28;20410;-76
2023/07/16 03:09:01;;;;;;;0.00;0.00;;;;;;;;;;1751864;28;20844;-76
2023/07/16 03:09:52;;;;;;;0.00;0.00;;;;;;;;;;1752002;28;20502;-77
2023/07/16 03:10:44;;;;;;;0.00;0.00;;;;;;;;;;1749760;28;20626;-75
2023/07/16 03:11:35;;;;;;;0.00;0.00;;;;;;;;;;1752351;28;20778;-75
2023/07/16 03:12:26;;;;;;;0.00;0.00;;;;;;;;;;1751274;28;20221;-75
2023/07/16 03:13:19;;;;;;;0.00;0.00;;;;;;;;;;1752065;28;20936;-75
2023/07/16 03:14:10;;;;;;;0.00;0.00;;;;;;;;;;1752072;28;20206;-76
2023/07/16 03:15:04;;;;;;;0.00;0.00;;;;;;;;;;1752513;28;20514;-75
2023/07/16 03:15:56;;;;;;;0.00;0.00;;;;;;;;;;1743258;28;20241;-76
2023/07/16 03:16:47;;;;;;;0.00;0.00;;;;;;;;;;1745629;28;20754;-75
2023/07/16 03:17:39;;;;;;;0.00;0.00;;;;;;;;;;1743926;28;20230;-75
2023/07/16 03:18:33;;;;;;;0.00;0.00;;;;;;;;;;1742862;28;20415;-75
2023/07/16 03:19:24;;;;;;;0.00;0.00;;;;;;;;;;1744118;28;20198;-75
2023/07/16 03:20:16;;;;;;;0.00;0.00;;;;;;;;;;1744868;28;20202;-76
2023/07/16 03:21:07;;;;;;;0.00;0.00;;;;;;;;;;1745262;28;20347;-76
2023/07/16 03:21:58;;;;;;;0.00;0.00;;;;;;;;;;1746131;28;20292;-76
2023/07/16 03:22:50;;;;;;;0.00;0.00;;;;;;;;;;1745348;28;20206;-76
2023/07/16 03:23:41;;;;;;;0.00;0.00;;;;;;;;;;1745743;28;20632;-76
2023/07/16 03:24:32;;;;;;;0.00;0.00;;;;;;;;;;1745334;28;20229;-75
2023/07/16 03:25:24;;;;;;;0.00;0.00;;;;;;;;;;1745913;28;20289;-76
2023/07/16 03:26:15;;;;;;;0.00;0.00;;;;;;;;;;1751395;28;20236;-76
2023/07/16 03:27:06;;;;;;;0.00;0.00;;;;;;;;;;1752911;28;20566;-76
2023/07/16 03:27:58;;;;;;;0.00;0.00;;;;;;;;;;1751423;28;20536;-75
2023/07/16 03:28:49;;;;;;;0.00;0.00;;;;;;;;;;1752245;28;20789;-76
2023/07/16 03:29:41;;;;;;;0.00;0.00;;;;;;;;;;1751828;28;20202;-76
2023/07/16 03:30:33;;;;;;;0.00;0.00;;;;;;;;;;1748772;28;20641;-76
2023/07/16 03:31:25;;;;;;;0.00;0.00;;;;;;;;;;1752157;28;20197;-76
2023/07/16 03:32:16;;;;;;;0.00;0.00;;;;;;;;;;1751025;28;20652;-76
2023/07/16 03:33:08;;;;;;;0.00;0.00;;;;;;;;;;1747944;28;20241;-76
2023/07/16 03:34:00;;;;;;;0.00;0.00;;;;;;;;;;1752558;28;20271;-76
2023/07/16 03:34:52;;;;;;;0.00;0.00;;;;;;;;;;1750405;28;20237;-76
2023/07/16 03:35:43;;;;;;;0.00;0.00;;;;;;;;;;1749435;28;20271;-76
2023/07/16 03:36:35;;;;;;;0.00;0.00;;;;;;;;;;1752199;28;20504;-75
2023/07/16 03:37:26;;;;;;;0.00;0.00;;;;;;;;;;1751165;28;20297;-76
2023/07/16 03:38:19;;;;;;;0.00;0.00;;;;;;;;;;1752053;28;20198;-77
2023/07/16 03:39:10;;;;;;;0.00;0.00;;;;;;;;;;1750945;28;20650;-76
2023/07/16 03:40:13;;;;;;;0.00;0.00;;;;;;;;;;1752486;28;20201;-76
2023/07/16 03:41:04;;;;;;;0.00;0.00;;;;;;;;;;1745526;28;20353;-76
2023/07/16 03:41:56;;;;;;;0.00;0.00;;;;;;;;;;1752513;28;20202;-77
2023/07/16 03:42:47;;;;;;;0.00;0.00;;;;;;;;;;1750669;28;20296;-76
2023/07/16 03:43:39;;;;;;;0.00;0.00;;;;;;;;;;1748713;28;20268;-76
2023/07/16 03:44:30;;;;;;;0.00;0.00;;;;;;;;;;1748116;28;20301;-76
2023/07/16 03:45:22;;;;;;;0.00;0.00;;;;;;;;;;1750782;28;20202;-77
2023/07/16 03:46:13;;;;;;;0.00;0.00;;;;;;;;;;1750537;28;20339;-76
2023/07/16 03:47:05;;;;;;;0.00;0.00;;;;;;;;;;1752439;28;20201;-76
2023/07/16 03:47:56;;;;;;;0.00;0.00;;;;;;;;;;1750834;28;20382;-76
2023/07/16 03:48:47;;;;;;;0.00;0.00;;;;;;;;;;1751991;28;20289;-76
2023/07/16 03:49:41;;;;;;;0.00;0.00;;;;;;;;;;1749474;28;20236;-76
2023/07/16 03:50:32;;;;;;;0.00;0.00;;;;;;;;;;1750792;28;20344;-75
2023/07/16 03:51:24;;;;;;;0.00;0.00;;;;;;;;;;1750513;28;20254;-75
2023/07/16 03:52:15;;;;;;;0.00;0.00;;;;;;;;;;1752417;28;20247;-75
2023/07/16 03:53:07;;;;;;;0.00;0.00;;;;;;;;;;1750554;28;20536;-76
2023/07/16 03:53:58;;;;;;;0.00;0.00;;;;;;;;;;1752535;28;20679;-76
2023/07/16 03:54:50;;;;;;;0.00;0.00;;;;;;;;;;1751338;28;20289;-75
2023/07/16 03:55:41;;;;;;;0.00;0.00;;;;;;;;;;1750679;28;20238;-77
2023/07/16 03:56:33;;;;;;;0.00;0.00;;;;;;;;;;1750588;28;20217;-76
2023/07/16 03:57:24;;;;;;;0.00;0.00;;;;;;;;;;1752257;28;20608;-76
2023/07/16 03:58:15;;;;;;;0.00;0.00;;;;;;;;;;1750826;28;20708;-76
2023/07/16 03:59:07;;;;;;;0.00;0.00;;;;;;;;;;1751593;28;20201;-76
2023/07/16 03:59:58;;;;;;;0.00;0.00;;;;;;;;;;1752329;28;20308;-76
2023/07/16 04:00:49;;;;;;;0.00;0.00;;;;;;;;;;1749912;28;20232;-76
2023/07/16 04:01:41;;;;;;;0.00;0.00;;;;;;;;;;1750928;28;20625;-76
2023/07/16 04:02:33;;;;;;;0.00;0.00;;;;;;;;;;1750582;28;20309;-76
2023/07/16 04:03:25;;;;;;;0.00;0.00;;;;;;;;;;1751956;28;20300;-77
2023/07/16 04:04:16;;;;;;;0.00;0.00;;;;;;;;;;1749204;28;20288;-76
2023/07/16 04:05:09;;;;;;;0.00;0.00;;;;;;;;;;1753229;28;20198;-76
2023/07/16 04:06:04;;;;;;;0.00;0.00;;;;;;;;;;1750169;28;20611;-76
2023/07/16 04:06:56;;;;;;;0.00;0.00;;;;;;;;;;1753317;28;20205;-75
2023/07/16 04:07:47;;;;;;;0.00;0.00;;;;;;;;;;1751812;28;20198;-75
2023/07/16 04:08:39;;;;;;;0.00;0.00;;;;;;;;;;1753322;28;20212;-75
2023/07/16 04:09:30;;;;;;;0.00;0.00;;;;;;;;;;1751327;28;21735;-75
2023/07/16 04:10:21;;;;;;;0.00;0.00;;;;;;;;;;1750057;28;20228;-77
2023/07/16 04:11:13;;;;;;;0.00;0.00;;;;;;;;;;1742578;28;20349;-76
2023/07/16 04:12:05;;;;;;;0.00;0.00;;;;;;;;;;1746495;28;20666;-76
2023/07/16 04:12:56;;;;;;;0.00;0.00;;;;;;;;;;1744608;28;20206;-75
2023/07/16 04:13:48;;;;;;;0.00;0.00;;;;;;;;;;1745176;28;20233;-76
2023/07/16 04:14:39;;;;;;;0.00;0.00;;;;;;;;;;1745946;28;20348;-76
2023/07/16 04:15:30;;;;;;;0.00;0.00;;;;;;;;;;1744974;28;20304;-77
2023/07/16 04:16:22;;;;;;;0.00;0.00;;;;;;;;;;1743915;28;20194;-76
2023/07/16 04:17:13;;;;;;;0.00;0.00;;;;;;;;;;1747049;28;20618;-76
2023/07/16 04:18:05;;;;;;;0.00;0.00;;;;;;;;;;1744706;28;20228;-76
2023/07/16 04:18:56;;;;;;;0.00;0.00;;;;;;;;;;1746190;28;20673;-76
2023/07/16 04:19:47;;;;;;;0.00;0.00;;;;;;;;;;1744585;28;20245;-76
2023/07/16 04:20:41;;;;;;;0.00;0.00;;;;;;;;;;1744886;28;20302;-76
2023/07/16 04:21:32;;;;;;;0.00;0.00;;;;;;;;;;1744699;28;20296;-75
2023/07/16 04:22:24;;;;;;;0.00;0.00;;;;;;;;;;1745697;28;20293;-75
2023/07/16 04:23:15;;;;;;;0.00;0.00;;;;;;;;;;1745893;28;20245;-75
2023/07/16 04:24:06;;;;;;;0.00;0.00;;;;;;;;;;1746337;28;20202;-75
2023/07/16 04:24:58;;;;;;;0.00;0.00;;;;;;;;;;1746062;28;20620;-76
2023/07/16 04:25:51;;;;;;;0.00;0.00;;;;;;;;;;1744354;28;20234;-75
2023/07/16 04:26:43;;;;;;;0.00;0.00;;;;;;;;;;1746391;28;20314;-76
2023/07/16 04:27:35;;;;;;;0.00;0.00;;;;;;;;;;1745636;28;20516;-76
2023/07/16 04:28:27;;;;;;;0.00;0.00;;;;;;;;;;1746259;28;20549;-75
2023/07/16 04:29:18;;;;;;;0.00;0.00;;;;;;;;;;1744594;28;20302;-75
2023/07/16 04:30:10;;;;;;;0.00;0.00;;;;;;;;;;1746378;28;20288;-75
2023/07/16 04:31:02;;;;;;;0.00;0.00;;;;;;;;;;1744247;28;20243;-76
2023/07/16 04:31:53;;;;;;;0.00;0.00;;;;;;;;;;1746039;28;20294;-76
2023/07/16 04:32:44;;;;;;;0.00;0.00;;;;;;;;;;1745744;28;20535;-76
2023/07/16 04:33:36;;;;;;;0.00;0.00;;;;;;;;;;1746256;28;20203;-76
2023/07/16 04:34:27;;;;;;;0.00;0.00;;;;;;;;;;1745558;28;20297;-76
2023/07/16 04:35:19;;;;;;;0.00;0.00;;;;;;;;;;1745245;28;20292;-76
2023/07/16 04:36:11;;;;;;;0.00;0.00;;;;;;;;;;1745450;28;20676;-76
2023/07/16 04:37:03;;;;;;;0.00;0.00;;;;;;;;;;1746571;28;20293;-76
2023/07/16 04:37:55;;;;;;;0.00;0.00;;;;;;;;;;1745672;28;20315;-76
2023/07/16 04:38:46;;;;;;;0.00;0.00;;;;;;;;;;1746100;28;20293;-77
2023/07/16 04:39:37;;;;;;;0.00;0.00;;;;;;;;;;1745793;28;20224;-76
2023/07/16 04:40:30;;;;;;;0.00;0.00;;;;;;;;;;1747262;28;20194;-77
2023/07/16 04:41:22;;;;;;;0.00;0.00;;;;;;;;;;1746844;28;20612;-76
2023/07/16 04:42:14;;;;;;;0.00;0.00;;;;;;;;;;1746764;28;20206;-76
2023/07/16 04:43:05;;;;;;;0.00;0.00;;;;;;;;;;1746324;28;20650;-76
2023/07/16 04:43:57;;;;;;;0.00;0.00;;;;;;;;;;1746267;28;20206;-76
2023/07/16 04:44:48;;;;;;;0.00;0.00;;;;;;;;;;1745435;28;20271;-76
2023/07/16 04:45:39;;;;;;;0.00;0.00;;;;;;;;;;1744742;28;20230;-76
2023/07/16 04:46:31;;;;;;;0.00;0.00;;;;;;;;;;1745697;28;20589;-76
2023/07/16 04:47:22;;;;;;;0.00;0.00;;;;;;;;;;1746069;28;20821;-76
2023/07/16 04:48:15;;;;;;;0.00;0.00;;;;;;;;;;1745864;28;20233;-76
2023/07/16 04:49:06;;;;;;;0.00;0.00;;;;;;;;;;1745808;28;20245;-76
2023/07/16 04:49:58;;;;;;;0.00;0.00;;;;;;;;;;1745843;28;20222;-76
2023/07/16 04:50:50;;;;;;;0.00;0.00;;;;;;;;;;1745172;28;20222;-76
2023/07/16 04:51:42;;;;;;;0.00;0.00;;;;;;;;;;1753106;28;20633;-76
2023/07/16 04:52:34;;;;;;;0.00;0.00;;;;;;;;;;1751479;28;20231;-75
2023/07/16 04:53:26;;;;;;;0.00;0.00;;;;;;;;;;1752791;28;20285;-76
2023/07/16 04:54:17;;;;;;;0.00;0.00;;;;;;;;;;1752549;28;20207;-76
2023/07/16 04:55:09;;;;;;;0.00;0.00;;;;;;;;;;1752872;28;20546;-76
2023/07/16 04:56:00;;;;;;;0.00;0.00;;;;;;;;;;1749349;28;20968;-76
2023/07/16 04:56:52;;;;;;;0.00;0.00;;;;;;;;;;1751884;28;20198;-76
2023/07/16 04:57:43;;;;;;;0.00;0.00;;;;;;;;;;1751487;28;20325;-75
2023/07/16 04:58:34;;;;;;;0.00;0.00;;;;;;;;;;1753262;28;20729;-76
2023/07/16 04:59:26;;;;;;;0.00;0.00;;;;;;;;;;1749867;28;20296;-76
2023/07/16 05:00:17;;;;;;;0.00;0.00;;;;;;;;;;1750934;28;20730;-77
2023/07/16 05:01:09;;;;;;;0.00;0.00;;;;;;;;;;1750661;28;20297;-76
2023/07/16 05:02:02;;;;;;;0.00;0.00;;;;;;;;;;1752107;28;20271;-76
2023/07/16 05:02:54;;;;;;;0.00;0.00;;;;;;;;;;1751434;28;20554;-76
2023/07/16 05:03:45;;;;;;;0.00;0.00;;;;;;;;;;1753164;28;20324;-76
2023/07/16 05:04:36;;;;;;;0.00;0.00;;;;;;;;;;1751615;28;20193;-76
2023/07/16 05:05:28;;;;;;;0.00;0.00;;;;;;;;;;1749174;28;20584;-75
2023/07/16 05:06:19;;;;;;;0.00;0.00;;;;;;;;;;1745641;28;20638;-75
2023/07/16 05:07:12;;;;;;;0.00;0.00;;;;;;;;;;1746350;28;20375;-75
2023/07/16 05:08:04;;;;;;;0.00;0.00;;;;;;;;;;1745089;28;20202;-76
2023/07/16 05:08:55;;;;;;;0.00;0.00;;;;;;;;;;1745940;28;20351;-76
2023/07/16 05:09:46;;;;;;;0.00;0.00;;;;;;;;;;1745292;28;20217;-76
2023/07/16 05:10:38;;;;;;;0.00;0.00;;;;;;;;;;1741334;28;20688;-76
2023/07/16 05:11:29;;;;;;;0.00;0.00;;;;;;;;;;1745434;28;20239;-76
2023/07/16 05:12:20;;;;;;;0.00;0.00;;;;;;;;;;1746101;28;20206;-76